Time;durP1;ratioP1;P1;durP2;ratioP2;P2;SDS_P1;SDS_P2;PMS_P1;PMS_P2;Temp;Humidity;BMP_temperature;BMP_pressure;BME280_temperature;BME280_humidity;BME280_pressure;Samples;Min_cycle;Max_cycle;Signal;HPM_P1;HPM_P2
2022/11/17 00:02:24;;;;;;;7.57;4.27;;;;;;;8.69;100.00;98201.28;5018813;28;20220;-63
2022/11/17 00:04:50;;;;;;;8.30;5.17;;;;;;;8.64;100.00;98198.25;5053494;28;20585;-62
2022/11/17 00:07:15;;;;;;;7.83;4.37;;;;;;;8.69;100.00;98180.75;5034734;28;20181;-61
2022/11/17 00:09:40;;;;;;;7.57;5.27;;;;;;;8.75;100.00;98184.59;5053335;28;20239;-62
2022/11/17 00:14:49;;;;;;;10.07;4.60;;;;;;;8.56;100.00;98174.97;5053090;28;20180;-61
2022/11/17 00:17:15;;;;;;;7.03;3.73;;;;;;;8.51;100.00;98172.75;5040649;28;20851;-62
2022/11/17 00:22:24;;;;;;;9.50;4.33;;;;;;;8.50;100.00;98170.31;5041243;28;20698;-62
2022/11/17 00:24:50;;;;;;;5.40;3.53;;;;;;;8.51;100.00;98156.59;5053179;28;20260;-62
2022/11/17 00:27:17;;;;;;;9.73;4.13;;;;;;;8.41;100.00;98156.44;5034495;28;20268;-62
2022/11/17 00:29:42;;;;;;;9.60;4.53;;;;;;;8.35;100.00;98144.09;5034613;28;20178;-62
2022/11/17 00:34:55;;;;;;;8.90;4.07;;;;;;;8.37;100.00;98120.00;5047764;28;20327;-62
2022/11/17 00:37:21;;;;;;;8.63;3.50;;;;;;;8.44;100.00;98120.31;5033947;28;20660;-61
2022/11/17 00:39:46;;;;;;;8.83;4.23;;;;;;;8.56;100.00;98110.91;5052356;28;20204;-61
2022/11/17 00:42:11;;;;;;;8.30;3.70;;;;;;;8.39;100.00;98102.75;5039570;28;20672;-61
2022/11/17 00:44:36;;;;;;;8.50;3.30;;;;;;;8.49;100.00;98102.06;5052946;28;20186;-61
2022/11/17 00:47:02;;;;;;;4.87;3.27;;;;;;;8.58;100.00;98098.78;5051994;28;20185;-61
2022/11/17 00:49:27;;;;;;;5.23;3.50;;;;;;;8.55;100.00;98081.09;5052369;28;20177;-61
2022/11/17 00:51:54;;;;;;;8.03;2.83;;;;;;;8.60;100.00;98078.19;5041019;28;20221;-61
2022/11/17 00:54:19;;;;;;;7.10;3.47;;;;;;;8.59;100.00;98077.34;5033677;28;20186;-62
2022/11/17 00:56:45;;;;;;;6.27;3.00;;;;;;;8.57;100.00;98081.78;5051633;28;20272;-61
2022/11/17 00:59:11;;;;;;;10.37;3.30;;;;;;;8.51;100.00;98075.38;5034511;28;20216;-61
2022/11/17 01:01:36;;;;;;;6.13;3.50;;;;;;;8.46;100.00;98068.94;5052106;28;20624;-61
2022/11/17 01:04:03;;;;;;;4.80;3.03;;;;;;;8.48;100.00;98065.38;5051495;28;20169;-65
2022/11/17 01:06:36;;;;;;;8.10;3.13;;;;;;;8.58;100.00;98060.34;5051482;28;20205;-61
2022/11/17 01:09:04;;;;;;;6.83;3.03;;;;;;;8.56;100.00;98057.91;5052042;28;20501;-62
2022/11/17 01:11:30;;;;;;;5.47;2.87;;;;;;;8.55;100.00;98055.47;5027467;28;20224;-62
2022/11/17 01:13:57;;;;;;;8.03;3.10;;;;;;;8.54;100.00;98046.16;5014678;28;20555;-61
2022/11/17 01:16:23;;;;;;;6.30;2.97;;;;;;;8.52;100.00;98045.44;5030265;28;20687;-61
2022/11/17 01:18:50;;;;;;;8.33;3.07;;;;;;;8.43;100.00;98044.38;5034029;28;20637;-61
2022/11/17 01:21:22;;;;;;;5.13;2.93;;;;;;;8.46;100.00;98038.22;5023416;28;20241;-61
2022/11/17 01:23:50;;;;;;;8.03;3.77;;;;;;;8.42;100.00;98034.25;5051251;28;20189;-61
2022/11/17 01:26:21;;;;;;;7.03;3.30;;;;;;;8.34;100.00;98038.25;5033460;28;20177;-61
2022/11/17 01:28:47;;;;;;;12.23;3.80;;;;;;;8.33;100.00;98031.47;5033775;28;20558;-60
2022/11/17 01:31:16;;;;;;;5.03;3.57;;;;;;;8.20;100.00;98025.72;5023472;28;20328;-61
2022/11/17 01:33:41;;;;;;;5.90;3.30;;;;;;;8.19;100.00;98024.88;5051273;28;20181;-62
2022/11/17 01:39:17;;;;;;;9.10;3.73;;;;;;;8.08;100.00;98024.91;5051607;28;20806;-61
2022/11/17 01:41:42;;;;;;;5.47;2.87;;;;;;;8.02;100.00;98018.50;5040296;28;20307;-60
2022/11/17 01:44:47;;;;;;;6.07;3.00;;;;;;;8.09;100.00;98013.75;5051002;28;20622;-61
2022/11/17 01:47:27;;;;;;;9.83;3.30;;;;;;;8.03;100.00;98001.41;5032913;28;20177;-61
2022/11/17 01:50:05;;;;;;;6.03;3.47;;;;;;;8.10;100.00;98001.75;5033644;28;20181;-61
2022/11/17 01:52:33;;;;;;;7.17;3.43;;;;;;;8.02;100.00;98000.59;5008264;28;20234;-61
2022/11/17 01:55:05;;;;;;;7.90;3.47;;;;;;;8.06;100.00;97989.19;5037467;28;20189;-63
2022/11/17 01:57:37;;;;;;;5.43;3.47;;;;;;;8.05;100.00;98000.34;5043550;28;20307;-62
2022/11/17 02:00:08;;;;;;;4.87;3.17;;;;;;;8.20;100.00;97993.22;5035130;28;20188;-67
2022/11/17 02:02:36;;;;;;;7.53;3.50;;;;;;;8.24;100.00;97992.03;5057236;28;20194;-62
2022/11/17 02:05:09;;;;;;;8.60;3.37;;;;;;;8.26;100.00;97986.81;5037603;28;20629;-61
2022/11/17 02:07:38;;;;;;;10.70;3.97;;;;;;;8.28;100.00;97986.69;5036950;28;20212;-62
2022/11/17 02:10:05;;;;;;;8.20;3.73;;;;;;;8.31;100.00;97976.19;5031759;28;20182;-62
2022/11/17 02:12:32;;;;;;;4.77;3.00;;;;;;;8.36;100.00;97979.19;5065173;28;20296;-62
2022/11/17 02:14:59;;;;;;;7.97;3.27;;;;;;;8.28;100.00;97958.50;5037352;28;20181;-61
2022/11/17 02:17:32;;;;;;;6.60;3.93;;;;;;;8.33;100.00;97959.75;5036675;28;20208;-62
2022/11/17 02:20:09;;;;;;;10.03;4.13;;;;;;;8.25;100.00;97967.25;5037306;28;20174;-62
2022/11/17 02:22:53;;;;;;;8.43;3.90;;;;;;;8.08;100.00;97961.69;4999533;28;20223;-62
2022/11/17 02:25:25;;;;;;;7.60;3.70;;;;;;;7.96;100.00;97946.50;5054728;28;20284;-62
2022/11/17 02:28:12;;;;;;;8.77;4.40;;;;;;;8.06;100.00;97953.34;5054774;28;20185;-62
2022/11/17 02:30:44;;;;;;;7.97;4.20;;;;;;;7.96;100.00;97942.16;5044645;28;20221;-62
2022/11/17 02:33:20;;;;;;;7.33;3.70;;;;;;;8.02;100.00;97930.66;5036143;28;20637;-63
2022/11/17 02:36:06;;;;;;;11.40;4.67;;;;;;;8.03;100.00;97924.59;5037098;28;20238;-62
2022/11/17 02:38:53;;;;;;;11.43;4.63;;;;;;;8.02;100.00;97915.28;5032782;28;20238;-63
2022/11/17 02:41:27;;;;;;;8.27;3.97;;;;;;;8.11;100.00;97904.31;5026915;28;20557;-65
2022/11/17 02:44:05;;;;;;;10.37;4.30;;;;;;;8.16;100.00;97894.53;5021422;28;20189;-62
2022/11/17 02:46:43;;;;;;;10.07;4.03;;;;;;;7.95;100.00;97878.31;5033138;28;20233;-63
2022/11/17 02:49:18;;;;;;;14.00;4.13;;;;;;;7.98;100.00;97884.00;5032558;28;20170;-64
2022/11/17 02:51:47;;;;;;;12.83;4.33;;;;;;;7.98;100.00;97888.31;5020707;28;20805;-64
2022/11/17 02:54:13;;;;;;;7.87;3.47;;;;;;;8.10;100.00;97886.50;5033075;28;20177;-63
2022/11/17 02:56:42;;;;;;;9.20;4.43;;;;;;;8.13;100.00;97879.41;5032230;28;20209;-64
2022/11/17 02:59:11;;;;;;;6.00;3.73;;;;;;;8.10;100.00;97874.53;5033221;28;20642;-63
2022/11/17 03:01:55;;;;;;;9.80;3.87;;;;;;;8.23;100.00;97882.84;5037076;28;20228;-63
2022/11/17 03:04:32;;;;;;;14.80;4.43;;;;;;;8.13;100.00;97876.84;5034154;28;20190;-63
2022/11/17 03:07:18;;;;;;;7.40;4.03;;;;;;;7.98;100.00;97870.41;5032641;28;20289;-62
2022/11/17 03:09:47;;;;;;;11.23;4.53;;;;;;;8.24;100.00;97881.09;5032976;28;20638;-63
2022/11/17 03:12:22;;;;;;;17.40;4.47;;;;;;;8.20;100.00;97874.63;5029164;28;20257;-62
2022/11/17 03:15:26;;;;;;;8.03;4.27;;;;;;;8.21;100.00;97871.09;5033030;28;20181;-63
2022/11/17 03:18:27;;;;;;;8.93;4.00;;;;;;;8.28;100.00;97864.53;5032970;28;20219;-63
2022/11/17 03:20:58;;;;;;;5.70;3.80;;;;;;;8.29;100.00;97865.38;5024187;28;20217;-64
2022/11/17 03:23:34;;;;;;;6.07;4.13;;;;;;;8.30;100.00;97869.53;5030564;28;20229;-65
2022/11/17 03:26:03;;;;;;;8.07;4.40;;;;;;;8.41;100.00;97874.63;5032800;28;20239;-64
2022/11/17 03:28:31;;;;;;;7.83;3.60;;;;;;;8.40;100.00;97873.78;5032360;28;20179;-63
2022/11/17 03:30:59;;;;;;;7.90;4.33;;;;;;;8.49;100.00;97872.25;5025316;28;20684;-63
2022/11/17 03:33:26;;;;;;;7.33;3.70;;;;;;;8.29;100.00;97868.72;5032830;28;20186;-63
2022/11/17 03:35:59;;;;;;;7.83;3.90;;;;;;;8.43;100.00;97859.13;5032450;28;20178;-63
2022/11/17 03:38:28;;;;;;;12.03;4.47;;;;;;;8.42;100.00;97863.41;5031744;28;20222;-63
2022/11/17 03:40:59;;;;;;;9.80;4.27;;;;;;;8.28;100.00;97858.63;5025373;28;20255;-63
2022/11/17 03:43:27;;;;;;;8.20;3.77;;;;;;;8.27;100.00;97847.53;5021215;28;20201;-62
2022/11/17 03:45:58;;;;;;;6.87;3.93;;;;;;;8.31;100.00;97856.63;5031843;28;20180;-62
2022/11/17 03:48:50;;;;;;;7.87;3.93;;;;;;;8.15;100.00;97845.97;5031106;28;20659;-65
2022/11/17 03:51:23;;;;;;;10.67;4.50;;;;;;;8.24;100.00;97846.03;5005988;28;20232;-62
2022/11/17 03:53:48;;;;;;;6.63;4.13;;;;;;;8.20;100.00;97842.13;5027210;28;20186;-63
2022/11/17 03:56:28;;;;;;;5.27;3.97;;;;;;;8.31;100.00;97850.66;5032975;28;20182;-66
2022/11/17 03:58:58;;;;;;;6.27;3.90;;;;;;;8.39;100.00;97841.44;5046424;28;20193;-63
2022/11/17 04:01:26;;;;;;;7.00;3.73;;;;;;;8.49;100.00;97854.31;5025616;28;20241;-62
2022/11/17 04:03:52;;;;;;;7.67;3.87;;;;;;;8.64;100.00;97848.88;5025522;28;20351;-62
2022/11/17 04:06:17;;;;;;;8.77;4.13;;;;;;;8.55;100.00;97847.91;5032622;28;20317;-63
2022/11/17 04:08:43;;;;;;;7.17;4.27;;;;;;;8.52;100.00;97843.84;5033166;28;20218;-62
2022/11/17 04:16:36;;;;;;;7.50;3.73;;;;;;;8.50;100.00;97848.28;5034323;28;20695;-62
2022/11/17 04:19:01;;;;;;;4.77;3.47;;;;;;;8.61;100.00;97839.72;5036809;28;20178;-63
2022/11/17 04:21:27;;;;;;;5.20;3.30;;;;;;;8.54;100.00;97843.72;5034030;28;20257;-62
2022/11/17 04:23:52;;;;;;;5.93;3.50;;;;;;;8.46;100.00;97841.78;5037662;28;20300;-63
2022/11/17 04:29:01;;;;;;;5.23;3.77;;;;;;;8.32;100.00;97834.38;5032837;28;20244;-66
2022/11/17 04:31:28;;;;;;;5.13;3.33;;;;;;;8.30;100.00;97836.25;5013537;28;20232;-63
2022/11/17 04:33:56;;;;;;;5.87;3.33;;;;;;;8.22;100.00;97827.44;5013883;28;20210;-63
2022/11/17 04:36:24;;;;;;;3.90;2.57;;;;;;;8.35;100.00;97824.69;5030625;28;20208;-62
2022/11/17 04:38:52;;;;;;;4.60;3.30;;;;;;;8.30;100.00;97828.56;5031089;28;20268;-64
2022/11/17 04:44:05;;;;;;;5.77;2.73;;;;;;;8.28;100.00;97825.31;5035071;28;20203;-62
2022/11/17 04:46:32;;;;;;;4.20;2.60;;;;;;;8.31;100.00;97825.88;5031863;28;20244;-63
2022/11/17 04:48:58;;;;;;;3.77;2.80;;;;;;;8.39;100.00;97836.31;5031060;28;20261;-62
2022/11/17 04:51:25;;;;;;;6.07;3.13;;;;;;;8.59;100.00;97827.97;5024302;28;20672;-62
2022/11/17 04:53:51;;;;;;;4.10;2.73;;;;;;;8.47;100.00;97832.34;5030860;28;20595;-62
2022/11/17 04:56:18;;;;;;;3.43;2.97;;;;;;;8.56;100.00;97834.16;5031897;28;20219;-62
2022/11/17 04:58:44;;;;;;;5.20;2.90;;;;;;;8.65;100.00;97837.72;5043954;28;20200;-62
2022/11/17 05:01:12;;;;;;;3.10;2.70;;;;;;;8.60;100.00;97829.59;5033051;28;20689;-62
2022/11/17 05:03:38;;;;;;;4.50;3.00;;;;;;;8.41;100.00;97841.31;5032081;28;20174;-61
2022/11/17 05:06:04;;;;;;;5.93;3.27;;;;;;;8.40;100.00;97832.81;5030106;28;20183;-62
2022/11/17 05:08:29;;;;;;;6.30;3.00;;;;;;;8.43;100.00;97831.75;5029791;28;20239;-64
2022/11/17 05:13:40;;;;;;;6.03;2.90;;;;;;;8.29;100.00;97826.94;5035688;28;20725;-63
2022/11/17 05:18:50;;;;;;;5.67;3.03;;;;;;;8.46;100.00;97823.00;5031767;28;20193;-63
2022/11/17 05:21:15;;;;;;;5.97;2.90;;;;;;;8.53;100.00;97827.53;5030303;28;20220;-62
2022/11/17 05:23:52;;;;;;;6.23;2.63;;;;;;;8.66;100.00;97837.56;5037336;28;20186;-61
2022/11/17 05:26:20;;;;;;;5.70;3.23;;;;;;;8.75;100.00;97822.38;5030158;28;20220;-64
2022/11/17 05:28:46;;;;;;;4.80;3.20;;;;;;;8.75;100.00;97822.38;5029978;28;20189;-61
2022/11/17 05:31:12;;;;;;;5.67;3.33;;;;;;;8.79;100.00;97831.44;5031153;28;20213;-61
2022/11/17 05:33:37;;;;;;;4.13;3.43;;;;;;;8.58;100.00;97824.56;5038449;28;20589;-61
2022/11/17 05:36:04;;;;;;;4.60;3.33;;;;;;;8.28;100.00;97812.50;5030589;28;20185;-62
2022/11/17 05:38:29;;;;;;;4.90;3.43;;;;;;;8.21;100.00;97799.38;5029698;28;20692;-63
2022/11/17 05:40:55;;;;;;;5.20;3.10;;;;;;;8.12;100.00;97789.91;5023144;28;20224;-62
2022/11/17 05:43:20;;;;;;;5.77;3.33;;;;;;;8.10;100.00;97773.84;5022067;28;20182;-61
2022/11/17 05:45:46;;;;;;;4.57;3.10;;;;;;;7.99;100.00;97792.63;5030336;28;20544;-62
2022/11/17 05:48:11;;;;;;;7.30;3.07;;;;;;;7.96;100.00;97801.38;5031141;28;20213;-64
2022/11/17 05:50:36;;;;;;;3.97;2.63;;;;;;;7.95;100.00;97789.53;5025879;28;20224;-62
2022/11/17 05:53:02;;;;;;;4.60;2.73;;;;;;;7.97;100.00;97790.19;5030636;28;20188;-62
2022/11/17 05:55:27;;;;;;;5.10;2.80;;;;;;;8.03;100.00;97794.03;5029867;28;20194;-61
2022/11/17 05:57:54;;;;;;;3.70;2.70;;;;;;;8.10;100.00;97791.75;5042091;28;20229;-61
2022/11/17 06:00:19;;;;;;;4.83;2.83;;;;;;;8.13;100.00;97804.34;5027608;28;20197;-64
2022/11/17 06:02:50;;;;;;;6.17;2.40;;;;;;;8.13;100.00;97794.91;5044585;28;20181;-63
2022/11/17 06:05:16;;;;;;;2.97;2.40;;;;;;;8.17;100.00;97792.91;5030205;28;20251;-62
2022/11/17 06:07:42;;;;;;;5.30;3.03;;;;;;;8.14;100.00;97788.84;5031208;28;20637;-61
2022/11/17 06:10:08;;;;;;;3.67;2.53;;;;;;;8.14;100.00;97785.47;5020622;28;20178;-61
2022/11/17 06:12:33;;;;;;;3.57;2.40;;;;;;;8.13;100.00;97778.72;5031736;28;20209;-61
2022/11/17 06:14:58;;;;;;;4.27;2.40;;;;;;;8.15;100.00;97780.22;5030267;28;20182;-62
2022/11/17 06:17:29;;;;;;;3.50;2.63;;;;;;;8.25;100.00;97782.84;5030367;28;20661;-64
2022/11/17 06:20:04;;;;;;;4.13;2.50;;;;;;;8.20;100.00;97790.09;5030186;28;20183;-62
2022/11/17 06:22:30;;;;;;;3.73;2.80;;;;;;;8.18;100.00;97790.19;5020131;28;20228;-61
2022/11/17 06:24:57;;;;;;;5.20;2.50;;;;;;;8.22;100.00;97780.53;5030326;28;20253;-62
2022/11/17 06:27:24;;;;;;;5.10;2.30;;;;;;;8.20;100.00;97796.03;5029384;28;20174;-62
2022/11/17 06:29:50;;;;;;;6.50;2.43;;;;;;;8.26;100.00;97802.41;5029803;28;20555;-62
2022/11/17 06:32:18;;;;;;;3.43;2.93;;;;;;;8.36;100.00;97799.88;5036222;28;20223;-62
2022/11/17 06:34:46;;;;;;;2.67;2.47;;;;;;;8.29;100.00;97791.91;5030138;28;20695;-61
2022/11/17 06:37:12;;;;;;;3.70;2.70;;;;;;;8.27;100.00;97790.41;5029311;28;20196;-61
2022/11/17 06:39:37;;;;;;;12.80;7.60;;;;;;;8.30;100.00;97790.97;5052254;28;20243;-62
2022/11/17 06:42:02;;;;;;;5.03;2.50;;;;;;;8.29;100.00;97796.22;5016045;28;20222;-62
2022/11/17 06:44:28;;;;;;;3.43;2.40;;;;;;;8.20;100.00;97790.09;5054921;28;20177;-63
2022/11/17 06:46:53;;;;;;;3.90;2.57;;;;;;;8.19;100.00;97788.47;5053935;28;20242;-61
2022/11/17 06:49:18;;;;;;;4.13;2.57;;;;;;;8.18;100.00;97779.97;5055171;28;20185;-61
2022/11/17 06:51:43;;;;;;;3.47;2.57;;;;;;;8.17;100.00;97787.78;5026341;28;20218;-62
2022/11/17 06:54:11;;;;;;;6.13;2.60;;;;;;;8.19;100.00;97788.47;5053929;28;20555;-61
2022/11/17 06:56:36;;;;;;;9.17;2.70;;;;;;;8.15;100.00;97797.31;5054003;28;20213;-62
2022/11/17 06:59:01;;;;;;;4.10;2.47;;;;;;;8.12;100.00;97788.13;5054386;28;20182;-63
2022/11/17 07:01:27;;;;;;;4.33;2.73;;;;;;;8.17;100.00;97788.56;5036887;28;20236;-61
2022/11/17 07:03:52;;;;;;;3.77;2.50;;;;;;;8.14;100.00;97783.72;5036524;28;20519;-60
2022/11/17 07:06:18;;;;;;;5.17;2.43;;;;;;;8.24;100.00;97794.81;5035843;28;20189;-66
2022/11/17 07:08:44;;;;;;;4.60;2.33;;;;;;;8.41;100.00;97790.09;5053930;28;20558;-61
2022/11/17 07:11:12;;;;;;;2.70;2.50;;;;;;;8.38;100.00;97787.75;5025556;28;20587;-63
2022/11/17 07:13:38;;;;;;;3.03;2.73;;;;;;;8.36;100.00;97790.47;5035440;28;20169;-61
2022/11/17 07:16:05;;;;;;;3.50;2.63;;;;;;;8.37;100.00;97784.41;5053471;28;20323;-61
2022/11/17 07:18:30;;;;;;;4.47;2.33;;;;;;;8.34;100.00;97787.19;5035121;28;20201;-60
2022/11/17 07:21:00;;;;;;;3.20;2.40;;;;;;;8.40;100.00;97803.81;5037140;28;20313;-61
2022/11/17 07:23:25;;;;;;;5.70;2.83;;;;;;;8.35;100.00;97798.28;5035511;28;20178;-61
2022/11/17 07:25:52;;;;;;;4.13;2.70;;;;;;;8.35;100.00;97791.38;5052994;28;20423;-62
2022/11/17 07:28:17;;;;;;;4.53;2.70;;;;;;;8.44;100.00;97789.00;5033475;28;20171;-61
2022/11/17 07:30:43;;;;;;;3.67;2.17;;;;;;;8.41;100.00;97782.41;5042545;28;20720;-61
2022/11/17 07:33:08;;;;;;;6.27;3.07;;;;;;;8.47;100.00;97781.09;5052773;28;20173;-63
2022/11/17 07:35:34;;;;;;;4.90;2.37;;;;;;;8.51;100.00;97783.28;5052956;28;20629;-62
2022/11/17 07:38:00;;;;;;;3.50;2.27;;;;;;;8.47;100.00;97770.84;5034535;28;20278;-63
2022/11/17 07:40:27;;;;;;;3.53;2.47;;;;;;;8.55;100.00;97765.91;5043589;28;20221;-62
2022/11/17 07:42:52;;;;;;;3.60;2.80;;;;;;;8.60;100.00;97775.78;5052513;28;20261;-61
2022/11/17 07:45:18;;;;;;;3.53;2.47;;;;;;;8.64;100.00;97772.81;5053588;28;20294;-61
2022/11/17 07:47:43;;;;;;;3.60;2.47;;;;;;;8.72;100.00;97777.31;5053270;28;20586;-61
2022/11/17 07:50:08;;;;;;;2.40;2.20;;;;;;;8.92;100.00;97777.34;5041679;28;20264;-61
2022/11/17 07:52:34;;;;;;;3.27;2.37;;;;;;;8.82;100.00;97773.03;5052437;28;20309;-61
2022/11/17 07:54:59;;;;;;;6.30;2.70;;;;;;;8.92;100.00;97770.50;5052382;28;20213;-61
2022/11/17 07:57:27;;;;;;;4.63;1.97;;;;;;;9.16;100.00;97767.56;5052150;28;20574;-62
2022/11/17 07:59:52;;;;;;;6.10;2.17;;;;;;;9.30;100.00;97768.13;5052753;28;20178;-61
2022/11/17 08:02:18;;;;;;;5.73;2.00;;;;;;;9.42;100.00;97761.94;5002658;28;20221;-61
2022/11/17 08:04:43;;;;;;;3.50;1.90;;;;;;;9.55;100.00;97764.25;5052777;28;20265;-62
2022/11/17 08:07:08;;;;;;;3.63;2.30;;;;;;;9.64;100.00;97760.88;5052391;28;20184;-61
2022/11/17 08:09:33;;;;;;;4.30;2.20;;;;;;;9.46;100.00;97759.91;5052430;28;20255;-61
2022/11/17 08:11:59;;;;;;;3.03;2.10;;;;;;;9.41;100.00;97770.56;5022091;28;20221;-62
2022/11/17 08:14:24;;;;;;;3.73;1.80;;;;;;;9.49;100.00;97775.06;5034633;28;20204;-61
2022/11/17 08:16:50;;;;;;;5.73;3.10;;;;;;;9.38;100.00;97770.84;5041366;28;20320;-63
2022/11/17 08:19:15;;;;;;;4.27;2.90;;;;;;;9.45;100.00;97777.09;5034856;28;20256;-62
2022/11/17 08:21:40;;;;;;;3.43;2.10;;;;;;;9.44;100.00;97775.47;5029212;28;20242;-61
2022/11/17 08:24:06;;;;;;;4.23;2.50;;;;;;;9.53;100.00;97777.19;5031002;28;20277;-61
2022/11/17 08:26:31;;;;;;;6.40;2.17;;;;;;;9.61;100.00;97779.13;5051869;28;20177;-61
2022/11/17 08:28:57;;;;;;;7.77;2.10;;;;;;;9.74;100.00;97773.72;5034679;28;20178;-61
2022/11/17 08:31:22;;;;;;;5.43;2.00;;;;;;;9.84;100.00;97774.50;5017614;28;20300;-61
2022/11/17 08:33:48;;;;;;;4.97;1.80;;;;;;;9.96;100.00;97769.22;5051799;28;20200;-62
2022/11/17 08:36:13;;;;;;;5.27;1.90;;;;;;;9.96;100.00;97775.19;5051375;28;20258;-67
2022/11/17 08:38:39;;;;;;;7.63;2.40;;;;;;;9.94;100.00;97773.69;5033733;28;20229;-62
2022/11/17 08:41:06;;;;;;;8.93;2.50;;;;;;;9.99;100.00;97782.59;5038150;28;20228;-63
2022/11/17 08:43:32;;;;;;;8.13;1.87;;;;;;;10.31;100.00;97771.19;5027508;28;20185;-63
2022/11/17 08:45:57;;;;;;;4.37;1.53;;;;;;;10.61;100.00;97771.13;5052076;28;20675;-63
2022/11/17 08:48:24;;;;;;;6.83;1.77;;;;;;;11.38;100.00;97769.09;5051719;28;20213;-63
2022/11/17 08:50:50;;;;;;;3.93;1.90;;;;;;;11.86;100.00;97774.84;5023380;28;20603;-63
2022/11/17 08:53:20;;;;;;;8.00;2.13;;;;;;;11.58;100.00;97772.34;5031878;28;20181;-62
2022/11/17 08:55:46;;;;;;;4.17;2.03;;;;;;;11.69;100.00;97780.81;5051258;28;20205;-64
2022/11/17 08:58:11;;;;;;;6.37;2.47;;;;;;;11.66;100.00;97779.34;5056575;28;20670;-61
2022/11/17 09:00:38;;;;;;;7.20;2.50;;;;;;;11.81;100.00;97783.97;5026984;28;20274;-61
2022/11/17 09:03:07;;;;;;;7.97;2.17;;;;;;;11.83;100.00;97784.63;5033544;28;20284;-62
2022/11/17 09:05:37;;;;;;;7.60;2.00;;;;;;;11.72;100.00;97786.47;5034318;28;20178;-62
2022/11/17 09:08:04;;;;;;;6.30;2.00;;;;;;;11.69;100.00;97786.75;5033123;28;20178;-67
2022/11/17 09:10:29;;;;;;;5.93;2.17;;;;;;;11.85;100.00;97787.88;5040883;28;20296;-60
2022/11/17 09:12:55;;;;;;;7.47;2.20;;;;;;;11.98;100.00;97796.03;5054506;28;20264;-61
2022/11/17 09:15:21;;;;;;;8.63;2.10;;;;;;;12.42;100.00;97795.22;5033605;28;20247;-62
2022/11/17 09:17:47;;;;;;;9.47;2.03;;;;;;;13.22;100.00;97801.84;5050813;28;20208;-61
2022/11/17 09:20:14;;;;;;;5.20;1.80;;;;;;;13.58;100.00;97799.06;5023235;28;20173;-62
2022/11/17 09:22:39;;;;;;;3.63;1.63;;;;;;;13.42;100.00;97806.78;5033608;28;20181;-61
2022/11/17 09:25:05;;;;;;;7.13;2.23;;;;;;;13.30;100.00;97814.00;5051386;28;20177;-61
2022/11/17 09:27:30;;;;;;;7.93;2.03;;;;;;;13.12;100.00;97825.22;5033139;28;20193;-62
2022/11/17 09:29:55;;;;;;;5.77;2.00;;;;;;;13.01;100.00;97828.91;5050027;28;20177;-62
2022/11/17 09:32:21;;;;;;;4.97;2.07;;;;;;;12.95;100.00;97832.09;5023646;28;20297;-61
2022/11/17 09:34:46;;;;;;;8.40;1.77;;;;;;;12.88;100.00;97847.38;5051701;28;20540;-62
2022/11/17 09:37:11;;;;;;;7.27;1.70;;;;;;;13.13;100.00;97838.94;5032746;28;20197;-61
2022/11/17 09:39:36;;;;;;;5.57;2.10;;;;;;;13.21;100.00;97846.72;5051572;28;20578;-62
2022/11/17 09:42:02;;;;;;;8.73;1.83;;;;;;;13.18;100.00;97852.19;5034907;28;20260;-67
2022/11/17 09:44:30;;;;;;;6.70;2.10;;;;;;;13.14;100.00;97859.44;5051632;28;20255;-63
2022/11/17 09:47:06;;;;;;;8.77;2.47;;;;;;;12.90;100.00;97854.97;5050816;28;20724;-63
2022/11/17 09:49:51;;;;;;;5.03;1.70;;;;;;;12.59;100.00;97869.13;5033486;28;20185;-62
2022/11/17 09:52:22;;;;;;;3.93;1.80;;;;;;;12.76;100.00;97871.81;5022950;28;20296;-62
2022/11/17 09:54:57;;;;;;;8.20;2.03;;;;;;;12.53;100.00;97866.38;5051443;28;20193;-64
2022/11/17 09:57:47;;;;;;;8.23;2.27;;;;;;;12.47;100.00;97872.13;5057692;28;20227;-61
2022/11/17 10:00:21;;;;;;;6.10;1.67;;;;;;;12.23;100.00;97876.94;5044313;28;20640;-61
2022/11/17 10:02:47;;;;;;;6.83;2.00;;;;;;;12.19;100.00;97864.50;5041454;28;20192;-62
2022/11/17 10:05:28;;;;;;;5.10;1.80;;;;;;;12.40;100.00;97875.31;5033055;28;20177;-62
2022/11/17 10:08:02;;;;;;;5.37;2.10;;;;;;;12.52;100.00;97875.84;5032462;28;20178;-61
2022/11/17 10:10:38;;;;;;;6.40;1.77;;;;;;;12.61;100.00;97878.50;5022991;28;20227;-62
2022/11/17 10:13:09;;;;;;;6.73;2.33;;;;;;;12.79;100.00;97879.25;5046947;28;20236;-61
2022/11/17 10:15:46;;;;;;;8.97;2.07;;;;;;;12.74;100.00;97884.88;5037625;28;20833;-62
2022/11/17 10:18:13;;;;;;;5.83;2.10;;;;;;;12.75;100.00;97877.94;5036377;28;20250;-62
2022/11/17 10:20:41;;;;;;;6.57;2.10;;;;;;;13.15;100.00;97868.78;5031570;28;20213;-61
2022/11/17 10:23:13;;;;;;;9.30;2.83;;;;;;;13.34;100.00;97869.50;5046356;28;20187;-63
2022/11/17 10:25:43;;;;;;;8.37;2.27;;;;;;;13.28;100.00;97875.28;5037940;28;20589;-61
2022/11/17 10:28:30;;;;;;;4.80;2.23;;;;;;;13.33;100.00;97873.84;5041066;28;20181;-59
2022/11/17 10:30:59;;;;;;;6.37;2.00;;;;;;;13.67;100.00;97878.19;5009278;28;20221;-60
2022/11/17 10:33:39;;;;;;;8.45;2.97;;;;;;;13.77;100.00;97866.91;5019529;28;20432;-61
2022/11/17 10:36:13;;;;;;;11.83;2.40;;;;;;;13.51;100.00;97878.97;5036306;28;20189;-61
2022/11/17 10:38:44;;;;;;;7.97;2.90;;;;;;;13.69;100.00;97881.44;5032227;28;20244;-60
2022/11/17 10:41:16;;;;;;;9.43;2.37;;;;;;;13.55;100.00;97893.16;5026759;28;20224;-60
2022/11/17 10:44:05;;;;;;;8.43;2.83;;;;;;;13.07;100.00;97886.81;5053801;28;20193;-60
2022/11/17 10:46:30;;;;;;;7.73;2.53;;;;;;;12.77;100.00;97891.50;5052839;28;20197;-61
2022/11/17 10:49:02;;;;;;;12.50;2.50;;;;;;;12.67;100.00;97898.53;5036403;28;20181;-61
2022/11/17 10:51:31;;;;;;;7.97;2.47;;;;;;;12.40;100.00;97889.94;5032366;28;20246;-60
2022/11/17 10:54:14;;;;;;;10.00;2.63;;;;;;;12.34;100.00;97890.53;5050479;28;20256;-60
2022/11/17 10:56:43;;;;;;;7.87;2.50;;;;;;;12.43;100.00;97893.03;5036974;28;20280;-61
2022/11/17 10:59:08;;;;;;;8.30;2.93;;;;;;;12.32;100.00;97892.47;5036615;28;20181;-60
2022/11/17 11:01:36;;;;;;;11.03;2.47;;;;;;;12.08;100.00;97891.28;5054621;28;20274;-61
2022/11/17 11:04:04;;;;;;;12.27;3.03;;;;;;;12.00;100.00;97894.63;5025545;28;20272;-62
2022/11/17 11:06:31;;;;;;;6.83;2.70;;;;;;;11.90;100.00;97897.22;5035720;28;20194;-63
2022/11/17 11:09:15;;;;;;;8.27;2.87;;;;;;;12.01;100.00;97888.50;5035949;28;20185;-64
2022/11/17 11:11:45;;;;;;;12.83;2.70;;;;;;;12.21;100.00;97890.94;5026364;28;20228;-64
2022/11/17 11:14:15;;;;;;;5.53;2.10;;;;;;;12.63;100.00;97892.88;5036274;28;20177;-62
2022/11/17 11:16:41;;;;;;;8.87;2.43;;;;;;;12.99;100.00;97887.59;5053507;28;20176;-64
2022/11/17 11:19:13;;;;;;;5.00;1.77;;;;;;;12.98;100.00;97885.16;5036212;28;20185;-61
2022/11/17 11:22:07;;;;;;;3.73;1.70;;;;;;;13.08;100.00;97891.03;5042531;28;20255;-63
2022/11/17 11:24:42;;;;;;;6.53;1.83;;;;;;;13.34;100.00;97903.06;5020177;28;20197;-62
2022/11/17 11:27:45;;;;;;;4.90;1.67;;;;;;;13.46;100.00;97898.44;5035022;28;20191;-61
2022/11/17 11:30:15;;;;;;;4.93;2.03;;;;;;;13.44;100.00;97895.25;5033445;28;20252;-62
2022/11/17 11:33:09;;;;;;;4.87;1.73;;;;;;;13.30;100.00;97897.41;5052896;28;20245;-63
2022/11/17 11:35:37;;;;;;;4.73;2.87;;;;;;;13.08;100.00;97904.75;5053723;28;20189;-63
2022/11/17 11:38:19;;;;;;;6.30;4.47;;;;;;;12.97;100.00;97904.97;5031432;28;20746;-62
2022/11/17 11:41:03;;;;;;;4.87;2.13;;;;;;;12.97;100.00;97907.56;5019754;28;20701;-63
2022/11/17 11:44:12;;;;;;;3.77;1.50;;;;;;;13.10;100.00;97908.94;5017100;28;20189;-61
2022/11/17 11:47:01;;;;;;;8.23;2.30;;;;;;;13.18;100.00;97896.88;4994103;28;20208;-61
2022/11/17 11:49:42;;;;;;;7.33;1.77;;;;;;;13.48;100.00;97892.19;4995041;28;20552;-61
2022/11/17 11:52:18;;;;;;;5.40;1.73;;;;;;;13.64;100.00;97888.81;4980229;28;20222;-61
2022/11/17 11:54:57;;;;;;;5.30;1.60;;;;;;;13.80;100.00;97887.25;4995135;28;20178;-61
2022/11/17 11:57:47;;;;;;;7.53;2.00;;;;;;;13.25;100.00;97886.75;4985511;28;20219;-61
2022/11/17 12:00:15;;;;;;;5.53;1.93;;;;;;;13.37;100.00;97900.16;4974637;28;20190;-62
2022/11/17 12:03:20;;;;;;;6.17;1.80;;;;;;;13.27;100.00;97896.91;4975585;28;20191;-60
2022/11/17 12:09:20;;;;;;;7.10;2.00;;;;;;;13.23;100.00;97907.56;5007084;28;20189;-60
2022/11/17 12:11:59;;;;;;;2.77;1.70;;;;;;;13.32;100.00;97908.41;4996535;28;20304;-60
2022/11/17 12:14:29;;;;;;;4.23;1.40;;;;;;;13.21;100.00;97906.91;5004764;28;20208;-59